createdAt,value
2022-11-29T00:00:03.013Z,42.50
2022-11-29T00:05:08.334Z,151.77
2022-11-29T00:10:16.919Z,55.80
2022-11-29T00:15:23.555Z,40.97
2022-11-29T00:20:30.384Z,59.30
2022-11-29T00:25:37.224Z,40.83
2022-11-29T00:30:44.011Z,76.33
2022-11-29T00:35:51.041Z,72.23
2022-11-29T00:40:57.994Z,44.33
2022-11-29T00:46:06.721Z,47.00
2022-11-29T00:51:13.980Z,165.20
2022-11-29T00:56:21.191Z,61.83
2022-11-29T01:01:28.140Z,273.17
2022-11-29T01:06:35.075Z,321.37
2022-11-29T01:11:42.180Z,168.27
2022-11-29T01:16:49.141Z,429.67
2022-11-29T01:21:56.527Z,239.50
2022-11-29T01:27:03.366Z,409.67
2022-11-29T01:32:10.305Z,284.27
2022-11-29T01:37:17.303Z,442.67
2022-11-29T01:42:24.034Z,462.10
2022-11-29T01:47:32.239Z,299.27
2022-11-29T01:52:40.314Z,361.87
2022-11-29T01:57:48.227Z,377.90
2022-11-29T02:02:59.243Z,541.03
2022-11-29T02:08:07.493Z,365.07
2022-11-29T02:13:30.303Z,245.67
2022-11-29T02:19:06.837Z,275.33
2022-11-29T02:24:52.126Z,227.20
2022-11-29T02:30:17.655Z,108.57
2022-11-29T02:36:03.109Z,272.70
2022-11-29T02:42:02.389Z,278.33
2022-11-29T02:47:40.160Z,219.70
2022-11-29T02:53:03.218Z,469.13
2022-11-29T02:58:50.560Z,391.40
2022-11-29T03:04:07.994Z,598.63
2022-11-29T03:09:31.139Z,400.73
2022-11-29T03:14:53.921Z,186.83
2022-11-29T03:20:25.833Z,258.83
2022-11-29T03:25:39.805Z,144.13
2022-11-29T03:30:51.018Z,45.93
2022-11-29T03:36:24.346Z,47.93
2022-11-29T03:41:38.433Z,85.17
2022-11-29T03:47:16.231Z,46.73
2022-11-29T03:52:48.142Z,67.47
2022-11-29T03:58:32.426Z,69.23
2022-11-29T04:04:16.489Z,63.83
2022-11-29T04:10:09.593Z,82.33
2022-11-29T04:15:35.281Z,44.17
2022-11-29T04:21:08.758Z,62.07
2022-11-29T04:27:09.312Z,230.10
2022-11-29T04:32:45.453Z,223.10
2022-11-29T04:38:14.070Z,45.87
2022-11-29T04:43:50.409Z,51.07
2022-11-29T04:49:19.176Z,101.03
2022-11-29T04:54:54.605Z,45.20
2022-11-29T05:00:17.375Z,58.80
2022-11-29T05:05:43.963Z,67.20
2022-11-29T05:11:25.014Z,73.77
2022-11-29T05:17:00.034Z,55.23
2022-11-29T05:22:47.158Z,243.77
2022-11-29T05:28:10.653Z,50.90
2022-11-29T05:33:48.819Z,82.23
2022-11-29T05:39:05.745Z,146.93
2022-11-29T05:44:42.175Z,253.07
2022-11-29T05:50:13.664Z,207.13
2022-11-29T05:55:27.830Z,136.37
2022-11-29T06:01:11.676Z,419.20
2022-11-29T06:06:40.007Z,314.40
2022-11-29T06:12:03.159Z,547.20
2022-11-29T06:17:35.702Z,228.10
2022-11-29T06:23:21.283Z,325.43
2022-11-29T06:28:41.290Z,226.13
2022-11-29T06:34:04.228Z,294.13
2022-11-29T06:39:12.475Z,233.97
2022-11-29T06:44:19.509Z,247.47
2022-11-29T06:49:42.272Z,96.27
2022-11-29T06:55:11.286Z,273.23
2022-11-29T07:00:24.302Z,423.47
2022-11-29T07:05:37.023Z,562.30
2022-11-29T07:10:44.126Z,578.83
2022-11-29T07:16:19.029Z,206.13
2022-11-29T07:21:41.710Z,253.93
2022-11-29T07:27:13.761Z,516.07
2022-11-29T07:32:51.392Z,347.00
2022-11-29T07:38:16.509Z,126.83
2022-11-29T07:43:36.270Z,266.47
2022-11-29T07:48:42.895Z,158.13
2022-11-29T07:53:49.666Z,89.33
2022-11-29T07:58:56.491Z,299.27
2022-11-29T08:04:03.268Z,473.77
2022-11-29T08:09:09.983Z,403.70
2022-11-29T08:14:16.671Z,516.13
2022-11-29T08:19:23.404Z,256.53
2022-11-29T08:24:30.100Z,271.93
2022-11-29T08:29:36.797Z,195.27
2022-11-29T08:34:43.629Z,28.83
2022-11-29T08:39:50.474Z,26.97
2022-11-29T08:44:57.184Z,152.57
2022-11-29T08:50:05.587Z,25.03
2022-11-29T08:55:12.230Z,119.37
2022-11-29T09:00:19.715Z,29.63
2022-11-29T09:05:26.543Z,431.00
2022-11-29T09:10:33.210Z,209.00
2022-11-29T09:15:42.214Z,102.47
2022-11-29T09:20:48.906Z,201.67
2022-11-29T09:25:56.148Z,263.13
2022-11-29T09:31:14.761Z,68.37
2022-11-29T09:36:27.858Z,33.07
2022-11-29T09:41:55.423Z,27.00
2022-11-29T09:47:26.081Z,30.77
2022-11-29T09:53:05.336Z,25.27
2022-11-29T09:58:21.751Z,29.67
2022-11-29T10:03:47.291Z,28.83
2022-11-29T10:09:07.092Z,26.67
2022-11-29T10:14:24.004Z,29.20
2022-11-29T10:19:39.669Z,32.97
2022-11-29T10:24:50.401Z,30.07
2022-11-29T10:29:59.499Z,29.17
2022-11-29T10:35:15.395Z,31.77
2022-11-29T10:40:26.591Z,33.33
2022-11-29T10:45:50.908Z,32.60
2022-11-29T10:50:57.697Z,33.90
2022-11-29T10:56:25.698Z,31.43
2022-11-29T11:01:38.827Z,30.40
2022-11-29T11:06:56.672Z,32.48
2022-11-29T11:12:16.609Z,32.33
2022-11-29T11:17:33.733Z,41.83
2022-11-29T11:22:41.027Z,39.37
2022-11-29T11:27:47.806Z,46.03
2022-11-29T11:33:21.538Z,47.90
2022-11-29T11:38:28.246Z,49.90
2022-11-29T11:43:36.135Z,55.80
2022-11-29T11:48:43.560Z,50.63
2022-11-29T11:53:54.136Z,63.70
2022-11-29T11:59:00.928Z,51.47
2022-11-29T12:04:12.119Z,58.57
2022-11-29T12:09:38.400Z,53.60
2022-11-29T12:15:11.091Z,60.27
2022-11-29T12:20:34.124Z,60.50
2022-11-29T12:26:06.120Z,60.47
2022-11-29T12:31:47.053Z,72.20
2022-11-29T12:37:24.953Z,60.40
2022-11-29T12:42:56.965Z,62.23
2022-11-29T12:48:14.823Z,57.43
2022-11-29T12:53:42.202Z,62.23
2022-11-29T12:59:17.206Z,61.43
2022-11-29T13:04:59.415Z,97.07
2022-11-29T13:10:31.640Z,90.40
2022-11-29T13:15:58.006Z,60.17
2022-11-29T13:21:21.775Z,63.47
2022-11-29T13:26:31.198Z,45.28
2022-11-29T13:31:38.753Z,61.90
2022-11-29T13:36:55.801Z,70.97
2022-11-29T13:42:51.716Z,62.83
2022-11-29T13:48:01.865Z,60.40
2022-11-29T13:53:15.706Z,68.27
2022-11-29T14:03:51.319Z,65.08
2022-11-29T14:09:21.387Z,62.43
2022-11-29T14:14:45.071Z,65.67
2022-11-29T14:19:52.302Z,59.60
2022-11-29T14:25:11.767Z,64.43
2022-11-29T14:30:49.701Z,67.03
2022-11-29T14:36:18.935Z,63.30
2022-11-29T14:41:46.067Z,62.23
2022-11-29T14:47:08.458Z,64.53
2022-11-29T14:52:25.431Z,62.63
2022-11-29T14:57:57.118Z,63.67
2022-11-29T15:03:26.380Z,61.40
2022-11-29T15:08:52.484Z,64.63
2022-11-29T15:14:29.471Z,62.23
2022-11-29T15:20:08.151Z,65.17
2022-11-29T15:25:24.926Z,63.40
2022-11-29T15:30:41.236Z,65.13
2022-11-29T15:36:00.984Z,70.43
2022-11-29T15:41:09.897Z,61.97
2022-11-29T15:46:29.234Z,62.83
2022-11-29T15:51:41.467Z,68.03
2022-11-29T15:57:01.748Z,63.23
2022-11-29T16:02:33.100Z,64.23
2022-11-29T16:07:42.481Z,63.13
2022-11-29T16:13:03.553Z,81.97
2022-11-29T16:18:20.677Z,68.70
2022-11-29T16:23:38.012Z,61.80
2022-11-29T16:28:49.186Z,59.80
2022-11-29T16:33:56.621Z,62.97
2022-11-29T16:39:22.101Z,61.00
2022-11-29T16:45:03.760Z,91.40
2022-11-29T16:50:21.749Z,81.07
2022-11-29T16:55:28.668Z,81.83
2022-11-29T17:00:36.374Z,72.93
2022-11-29T17:05:44.927Z,72.23
2022-11-29T17:10:51.927Z,72.43
2022-11-29T17:15:59.111Z,66.10
2022-11-29T17:21:06.555Z,141.33
2022-11-29T17:26:13.294Z,81.03
2022-11-29T17:31:23.886Z,58.43
2022-11-29T17:36:31.610Z,55.20
2022-11-29T17:41:38.782Z,55.60
2022-11-29T17:46:45.702Z,195.97
2022-11-29T17:51:53.797Z,72.10
2022-11-29T17:57:01.982Z,338.03
2022-11-29T18:02:10.974Z,121.60
2022-11-29T18:07:19.130Z,67.93
2022-11-29T18:12:26.119Z,76.10
2022-11-29T18:17:33.204Z,74.17
2022-11-29T18:22:40.269Z,63.70
2022-11-29T18:27:49.012Z,71.30
2022-11-29T18:32:55.837Z,89.27
2022-11-29T18:38:17.860Z,73.53
2022-11-29T18:43:11.450Z,135.17
2022-11-29T18:48:18.572Z,70.33
2022-11-29T18:53:25.324Z,60.60
2022-11-29T18:58:32.786Z,54.20
2022-11-29T19:03:44.572Z,60.07
2022-11-29T19:08:52.581Z,56.50
2022-11-29T19:14:04.808Z,56.63
2022-11-29T19:19:12.614Z,53.23
2022-11-29T19:24:20.888Z,55.10
2022-11-29T19:29:28.013Z,48.80
2022-11-29T19:34:35.529Z,44.23
2022-11-29T19:39:42.838Z,47.17
2022-11-29T19:50:02.579Z,47.00
2022-11-29T19:55:09.291Z,43.30
2022-11-29T20:00:17.222Z,45.47
2022-11-29T20:05:25.325Z,44.13
2022-11-29T20:10:32.395Z,40.53
2022-11-29T20:15:39.143Z,47.73
2022-11-29T20:20:46.085Z,41.83
2022-11-29T20:25:56.051Z,44.10
2022-11-29T20:31:09.135Z,40.40
2022-11-29T20:36:52.189Z,33.58
2022-11-29T20:42:23.070Z,38.60
2022-11-29T20:47:52.436Z,33.60
2022-11-29T20:53:32.326Z,42.60
2022-11-29T20:58:40.979Z,33.20
2022-11-29T21:03:48.172Z,77.23
2022-11-29T21:08:56.752Z,31.77
2022-11-29T21:14:07.651Z,35.60
2022-11-29T21:19:18.960Z,33.60
2022-11-29T21:24:46.418Z,34.00
2022-11-29T21:29:54.533Z,34.00
2022-11-29T21:35:01.432Z,32.37
2022-11-29T21:40:09.970Z,34.20
2022-11-29T21:45:17.128Z,33.07
2022-11-29T21:50:24.033Z,35.00
2022-11-29T21:55:32.224Z,34.80
2022-11-29T22:00:39.345Z,32.13
2022-11-29T22:05:46.343Z,37.13
2022-11-29T22:11:03.123Z,37.67
2022-11-29T22:16:12.638Z,38.43
2022-11-29T22:21:19.899Z,33.77
2022-11-29T22:26:28.574Z,40.40
2022-11-29T22:31:38.075Z,36.37
2022-11-29T22:36:45.455Z,38.30
2022-11-29T22:41:55.062Z,34.33
2022-11-29T22:47:02.080Z,35.67
2022-11-29T22:52:09.300Z,40.20
2022-11-29T22:57:16.275Z,37.53
2022-11-29T23:02:23.143Z,34.60
2022-11-29T23:07:31.077Z,40.30
2022-11-29T23:12:37.825Z,38.00
2022-11-29T23:17:45.152Z,40.43
2022-11-29T23:22:52.340Z,40.73
2022-11-29T23:27:59.738Z,34.63
2022-11-29T23:33:06.824Z,38.87
2022-11-29T23:38:14.077Z,32.90
2022-11-29T23:43:20.967Z,35.17
2022-11-29T23:48:28.237Z,38.13
2022-11-29T23:53:36.398Z,38.07
2022-11-29T23:58:43.716Z,37.67
